createdAt,value
2022-09-11T00:00:01.481Z,99.53
2022-09-11T00:05:01.227Z,99.07
2022-09-11T00:10:01.874Z,99.24
2022-09-11T00:15:01.953Z,99.27
2022-09-11T00:20:01.919Z,99.29
2022-09-11T00:25:01.501Z,99.41
2022-09-11T00:30:01.648Z,99.62
2022-09-11T00:35:01.960Z,99.53
2022-09-11T00:40:01.591Z,100
2022-09-11T00:45:01.371Z,100.32
2022-09-11T00:50:02.033Z,100.16
2022-09-11T00:55:01.688Z,100.55
2022-09-11T01:00:02.168Z,100.35
2022-09-11T01:05:01.804Z,100.17
2022-09-11T01:10:01.814Z,100.15
2022-09-11T01:15:01.476Z,100.03
2022-09-11T01:20:01.286Z,100.08
2022-09-11T01:25:01.902Z,100.02
2022-09-11T01:30:01.392Z,99.8
2022-09-11T01:35:01.832Z,99.77
2022-09-11T01:40:02.167Z,99.71
2022-09-11T01:45:01.463Z,99.9
2022-09-11T01:50:01.989Z,99.88
2022-09-11T01:55:01.565Z,99.73
2022-09-11T02:00:01.602Z,99.72
2022-09-11T02:05:01.950Z,99.75
2022-09-11T02:10:01.438Z,99.7
2022-09-11T02:15:01.557Z,99.55
2022-09-11T02:20:02.286Z,99.75
2022-09-11T02:25:01.540Z,99.61
2022-09-11T02:30:01.988Z,99.84
2022-09-11T02:35:01.926Z,99.97
2022-09-11T02:40:01.810Z,100.09
2022-09-11T02:45:02.244Z,100.09
2022-09-11T02:50:01.832Z,99.98
2022-09-11T02:55:01.909Z,99.86
2022-09-11T03:00:01.531Z,99.77
2022-09-11T03:05:01.932Z,99.91
2022-09-11T03:10:01.522Z,99.95
2022-09-11T03:15:01.969Z,100.03
2022-09-11T03:20:02.188Z,100.13
2022-09-11T03:25:01.382Z,100.02
2022-09-11T03:30:02.166Z,100.06
2022-09-11T03:35:01.627Z,100.11
2022-09-11T03:40:02.263Z,100.14
2022-09-11T03:45:01.243Z,100.01
2022-09-11T03:50:01.928Z,99.95
2022-09-11T03:55:01.599Z,100.24
2022-09-11T04:00:01.502Z,100.14
2022-09-11T04:05:02.067Z,100.24
2022-09-11T04:10:01.361Z,100.2
2022-09-11T04:15:01.804Z,100.26
2022-09-11T04:20:01.530Z,100.17
2022-09-11T04:25:02.071Z,100.27
2022-09-11T04:30:01.957Z,100.23
2022-09-11T04:35:01.512Z,100.41
2022-09-11T04:40:02.240Z,100.3
2022-09-11T04:45:01.904Z,100.38
2022-09-11T04:50:01.663Z,100.27
2022-09-11T04:55:01.685Z,100.29
2022-09-11T05:00:02.041Z,100.34
2022-09-11T05:05:01.466Z,100.31
2022-09-11T05:10:01.559Z,100.39
2022-09-11T05:15:01.258Z,100.35
2022-09-11T05:20:02.144Z,100.24
2022-09-11T05:25:02.061Z,100.15
2022-09-11T05:30:01.431Z,100.14
2022-09-11T05:35:02.059Z,100.1
2022-09-11T05:40:01.698Z,100.09
2022-09-11T05:45:01.888Z,99.97
2022-09-11T05:50:01.534Z,100
2022-09-11T05:55:02.130Z,100.27
2022-09-11T06:00:01.381Z,100.01
2022-09-11T06:05:01.635Z,99.95
2022-09-11T06:10:03.439Z,99.66
2022-09-11T06:15:01.511Z,99.59
2022-09-11T06:20:01.820Z,99.91
2022-09-11T06:25:02.138Z,99.56
2022-09-11T06:30:01.299Z,99.47
2022-09-11T06:35:01.946Z,99.38
2022-09-11T06:40:01.677Z,99.3
2022-09-11T06:45:02.098Z,99.31
2022-09-11T06:50:02.062Z,99.54
2022-09-11T06:55:02.084Z,99.34
2022-09-11T07:00:01.541Z,99.19
2022-09-11T07:05:01.345Z,99.13
2022-09-11T07:10:01.668Z,99.33
2022-09-11T07:15:01.284Z,99.01
2022-09-11T07:20:01.741Z,99.05
2022-09-11T07:25:03.725Z,98.97
2022-09-11T07:30:02.029Z,99.05
2022-09-11T07:35:02.078Z,98.63
2022-09-11T07:40:01.426Z,98.77
2022-09-11T07:45:01.977Z,98.72
2022-09-11T07:50:02.043Z,98.28
2022-09-11T07:55:02.042Z,98.64
2022-09-11T08:00:02.170Z,98.18
2022-09-11T08:05:02.005Z,98
2022-09-11T08:10:25.636Z,99.47
2022-09-11T08:15:01.388Z,98.45
2022-09-11T08:20:01.610Z,98.5
2022-09-11T08:25:02.005Z,98.08
2022-09-11T08:30:01.422Z,99.71
2022-09-11T08:35:01.500Z,98.31
2022-09-11T08:40:01.644Z,99.43
2022-09-11T08:45:01.877Z,99.44
2022-09-11T08:50:01.527Z,99.76
2022-09-11T08:55:01.505Z,98.12
2022-09-11T09:00:01.716Z,97.6
2022-09-11T09:05:01.774Z,98.9
2022-09-11T09:10:01.316Z,97.37
2022-09-11T09:15:01.825Z,96.47
2022-09-11T09:20:01.516Z,97.55
2022-09-11T09:25:01.216Z,97.04
2022-09-11T09:30:01.561Z,96.32
2022-09-11T09:35:01.623Z,97.31
2022-09-11T09:40:01.578Z,97.62
2022-09-11T09:45:01.274Z,95.76
2022-09-11T09:50:01.564Z,95.95
2022-09-11T09:55:01.901Z,95.82
2022-09-11T10:00:01.137Z,95.82
2022-09-11T10:05:02.100Z,96.28
2022-09-11T10:10:01.401Z,95.97
2022-09-11T10:15:01.338Z,94.73
2022-09-11T10:20:01.625Z,94.33
2022-09-11T10:25:01.274Z,95.23
2022-09-11T10:30:01.365Z,93.99
2022-09-11T10:35:01.948Z,94.65
2022-09-11T10:40:01.546Z,94.12
2022-09-11T10:45:01.870Z,93.44
2022-09-11T10:50:01.567Z,90.45
2022-09-11T10:55:01.501Z,92.15
2022-09-11T11:00:01.646Z,92.64
2022-09-11T11:05:01.278Z,92.42
2022-09-11T11:10:01.917Z,92.9
2022-09-11T11:15:01.762Z,92.9
2022-09-11T11:20:01.617Z,89.63
2022-09-11T11:25:01.543Z,89.26
2022-09-11T11:30:01.750Z,88.33
2022-09-11T11:35:01.265Z,85.96
2022-09-11T11:40:01.249Z,87.42
2022-09-11T11:45:01.937Z,89.29
2022-09-11T11:50:01.431Z,86.62
2022-09-11T11:55:01.390Z,87.29
2022-09-11T12:00:01.726Z,87.76
2022-09-11T12:05:01.558Z,83.67
2022-09-11T12:10:02.029Z,85.5
2022-09-11T12:15:01.913Z,84.41
2022-09-11T12:20:01.203Z,82.54
2022-09-11T12:25:01.521Z,82.28
2022-09-11T12:30:01.697Z,83.35
2022-09-11T12:35:01.670Z,81.3
2022-09-11T12:40:02.087Z,82.02
2022-09-11T12:45:01.858Z,78.68
2022-09-11T12:50:01.449Z,79.22
2022-09-11T12:55:01.936Z,78.38
2022-09-11T13:00:01.791Z,77.09
2022-09-11T13:05:01.527Z,74.06
2022-09-11T13:10:01.549Z,75.52
2022-09-11T13:15:01.974Z,77.55
2022-09-11T13:20:02.131Z,78.48
2022-09-11T13:25:01.345Z,78.03
2022-09-11T13:30:01.810Z,76.36
2022-09-11T13:35:01.770Z,74.73
2022-09-11T13:40:01.850Z,72.63
2022-09-11T13:45:01.531Z,72.79
2022-09-11T13:50:01.572Z,76.42
2022-09-11T13:55:01.265Z,70.82
2022-09-11T14:00:01.580Z,72.09
2022-09-11T14:05:01.728Z,75.96
2022-09-11T14:10:01.327Z,74.11
2022-09-11T14:15:02.215Z,73.74
2022-09-11T14:20:01.808Z,73.26
2022-09-11T14:25:01.545Z,76.54
2022-09-11T14:30:01.950Z,74.56
2022-09-11T14:35:01.531Z,74.6
2022-09-11T14:40:01.528Z,73.09
2022-09-11T14:45:02.223Z,75.88
2022-09-11T14:50:01.630Z,73.78
2022-09-11T14:55:02.154Z,73.78
2022-09-11T15:00:01.498Z,74.07
2022-09-11T15:05:01.567Z,76.46
2022-09-11T15:10:01.582Z,75.87
2022-09-11T15:15:02.322Z,73.55
2022-09-11T15:20:01.309Z,75.24
2022-09-11T15:25:01.342Z,73.58
2022-09-11T15:30:01.362Z,73.1
2022-09-11T15:35:01.950Z,75
2022-09-11T15:40:01.914Z,74.14
2022-09-11T15:45:01.678Z,73.84
2022-09-11T15:50:01.225Z,73.67
2022-09-11T15:55:01.471Z,75.87
2022-09-11T16:00:01.988Z,74.6
2022-09-11T16:05:01.675Z,73.95
2022-09-11T16:10:01.656Z,74.57
2022-09-11T16:15:01.987Z,74.52
2022-09-11T16:20:01.719Z,75.4
2022-09-11T16:25:01.595Z,75.15
2022-09-11T16:30:42.172Z,75.55
2022-09-11T16:35:01.968Z,74.88
2022-09-11T16:40:01.756Z,75.32
2022-09-11T16:45:02.191Z,75.39
2022-09-11T16:50:08.366Z,77.33
2022-09-11T16:55:01.540Z,77.15
2022-09-11T17:00:01.214Z,77.26
2022-09-11T17:05:01.554Z,76.25
2022-09-11T17:10:01.729Z,77.81
2022-09-11T17:15:01.208Z,79.08
2022-09-11T17:20:01.366Z,78.16
2022-09-11T17:25:02.042Z,80.47
2022-09-11T17:30:01.658Z,81.12
2022-09-11T17:35:01.569Z,81.62
2022-09-11T17:40:01.732Z,82.27
2022-09-11T17:45:02.033Z,82.15
2022-09-11T17:50:01.360Z,83.34
2022-09-11T17:55:01.221Z,84.95
2022-09-11T18:00:01.138Z,85.04
2022-09-11T18:05:01.882Z,85.67
2022-09-11T18:10:01.601Z,86.78
2022-09-11T18:15:01.384Z,87.52
2022-09-11T18:20:01.789Z,88.46
2022-09-11T18:25:01.580Z,89.63
2022-09-11T18:30:01.424Z,90.26
2022-09-11T18:35:01.758Z,90.9
2022-09-11T18:40:01.317Z,91.13
2022-09-11T18:45:01.815Z,91.82
2022-09-11T18:50:01.892Z,92.18
2022-09-11T18:55:01.745Z,92.95
2022-09-11T19:00:01.674Z,93.05
2022-09-11T19:05:01.441Z,92.76
2022-09-11T19:10:01.519Z,93.18
2022-09-11T19:15:02.102Z,93.9
2022-09-11T19:20:01.656Z,94.07
2022-09-11T19:25:01.190Z,94.71
2022-09-11T19:30:01.902Z,94.42
2022-09-11T19:35:01.422Z,94.69
2022-09-11T19:40:01.917Z,94.81
2022-09-11T19:45:01.542Z,94.08
2022-09-11T19:50:02.101Z,93.94
2022-09-11T19:55:01.589Z,94.41
2022-09-11T20:00:02.115Z,94.52
2022-09-11T20:05:01.702Z,94.84
2022-09-11T20:10:01.967Z,95.09
2022-09-11T20:15:01.704Z,95.19
2022-09-11T20:20:01.784Z,94.73
2022-09-11T20:25:01.637Z,94.61
2022-09-11T20:30:01.595Z,94.79
2022-09-11T20:35:01.291Z,94.97
2022-09-11T20:40:01.708Z,95.22
2022-09-11T20:45:02.015Z,95.36
2022-09-11T20:50:01.803Z,95.03
2022-09-11T20:55:01.738Z,95.06
2022-09-11T21:00:02.094Z,95.36
2022-09-11T21:05:01.976Z,95.8
2022-09-11T21:10:01.760Z,95.38
2022-09-11T21:15:01.707Z,95.74
2022-09-11T21:20:01.279Z,95.44
2022-09-11T21:25:02.024Z,95.25
2022-09-11T21:30:02.092Z,95.09
2022-09-11T21:35:01.345Z,95.06
2022-09-11T21:40:01.325Z,95.28
2022-09-11T21:45:01.991Z,95.56
2022-09-11T21:50:01.376Z,96.01
2022-09-11T21:55:01.392Z,96.38
2022-09-11T22:00:01.872Z,96
2022-09-11T22:05:02.060Z,96.06
2022-09-11T22:10:01.700Z,96.48
2022-09-11T22:15:01.515Z,97.51
2022-09-11T22:20:01.250Z,98.22
2022-09-11T22:25:01.308Z,98.26
2022-09-11T22:30:02.118Z,95.92
2022-09-11T22:35:01.949Z,98.23
2022-09-11T22:40:02.194Z,98.21
2022-09-11T22:45:01.238Z,98.38
2022-09-11T22:50:02.129Z,96.46
2022-09-11T22:55:08.424Z,98.98
2022-09-11T23:00:03.678Z,98.93
2022-09-11T23:05:02.012Z,99.21
2022-09-11T23:10:01.351Z,99.21
2022-09-11T23:30:02.016Z,97.67
2022-09-11T23:35:01.915Z,97.6
2022-09-11T23:40:02.001Z,98.19
2022-09-11T23:45:01.860Z,98.15
2022-09-11T23:50:01.477Z,98.08
2022-09-11T23:55:02.107Z,100.17
